sensor_id;sensor_type;location;lat;lon;timestamp;P1;durP1;ratioP1;P2;durP2;ratioP2
72939;SDS011;61094;51.154;13.570;2023-04-24T00:05:01;9.57;;;4.35;;
72939;SDS011;61094;51.154;13.570;2023-04-24T00:10:05;8.73;;;4.32;;
72939;SDS011;61094;51.154;13.570;2023-04-24T00:15:07;9.80;;;4.75;;
72939;SDS011;61094;51.154;13.570;2023-04-24T00:25:14;12.65;;;5.30;;
72939;SDS011;61094;51.154;13.570;2023-04-24T00:30:16;12.43;;;5.53;;
72939;SDS011;61094;51.154;13.570;2023-04-24T00:35:19;12.02;;;4.97;;
72939;SDS011;61094;51.154;13.570;2023-04-24T00:40:21;10.57;;;5.30;;
72939;SDS011;61094;51.154;13.570;2023-04-24T00:45:23;11.10;;;4.90;;
72939;SDS011;61094;51.154;13.570;2023-04-24T00:50:26;9.23;;;4.65;;
72939;SDS011;61094;51.154;13.570;2023-04-24T00:55:29;10.13;;;4.45;;
72939;SDS011;61094;51.154;13.570;2023-04-24T01:00:31;9.10;;;4.45;;
72939;SDS011;61094;51.154;13.570;2023-04-24T01:05:35;8.32;;;3.80;;
72939;SDS011;61094;51.154;13.570;2023-04-24T01:10:37;8.45;;;3.50;;
72939;SDS011;61094;51.154;13.570;2023-04-24T01:15:41;8.63;;;3.30;;
72939;SDS011;61094;51.154;13.570;2023-04-24T01:20:44;9.65;;;3.83;;
72939;SDS011;61094;51.154;13.570;2023-04-24T01:25:48;10.68;;;3.40;;
72939;SDS011;61094;51.154;13.570;2023-04-24T01:30:50;8.93;;;3.40;;
72939;SDS011;61094;51.154;13.570;2023-04-24T01:41:00;8.73;;;3.67;;
72939;SDS011;61094;51.154;13.570;2023-04-24T01:46:02;8.95;;;3.35;;
72939;SDS011;61094;51.154;13.570;2023-04-24T01:51:04;6.80;;;3.08;;
72939;SDS011;61094;51.154;13.570;2023-04-24T01:56:07;8.25;;;2.90;;
72939;SDS011;61094;51.154;13.570;2023-04-24T02:01:09;7.70;;;3.20;;
72939;SDS011;61094;51.154;13.570;2023-04-24T02:06:16;8.63;;;3.25;;
72939;SDS011;61094;51.154;13.570;2023-04-24T02:11:19;9.15;;;3.25;;
72939;SDS011;61094;51.154;13.570;2023-04-24T02:16:21;9.90;;;3.42;;
72939;SDS011;61094;51.154;13.570;2023-04-24T02:21:24;9.07;;;3.13;;
72939;SDS011;61094;51.154;13.570;2023-04-24T02:26:28;8.25;;;2.65;;
72939;SDS011;61094;51.154;13.570;2023-04-24T02:31:31;5.63;;;2.03;;
72939;SDS011;61094;51.154;13.570;2023-04-24T02:36:33;6.88;;;2.40;;
72939;SDS011;61094;51.154;13.570;2023-04-24T02:41:36;5.85;;;1.73;;
72939;SDS011;61094;51.154;13.570;2023-04-24T02:51:41;4.05;;;1.17;;
72939;SDS011;61094;51.154;13.570;2023-04-24T02:56:44;5.18;;;1.23;;
72939;SDS011;61094;51.154;13.570;2023-04-24T03:01:46;3.50;;;1.17;;
72939;SDS011;61094;51.154;13.570;2023-04-24T03:06:48;5.47;;;1.15;;
72939;SDS011;61094;51.154;13.570;2023-04-24T03:11:55;2.92;;;0.88;;
72939;SDS011;61094;51.154;13.570;2023-04-24T03:16:58;1.92;;;0.70;;
72939;SDS011;61094;51.154;13.570;2023-04-24T03:22:01;2.67;;;0.70;;
72939;SDS011;61094;51.154;13.570;2023-04-24T03:27:06;2.13;;;0.80;;
72939;SDS011;61094;51.154;13.570;2023-04-24T03:32:37;2.35;;;0.70;;
72939;SDS011;61094;51.154;13.570;2023-04-24T03:37:41;4.53;;;1.30;;
72939;SDS011;61094;51.154;13.570;2023-04-24T03:43:13;9.40;;;2.40;;
72939;SDS011;61094;51.154;13.570;2023-04-24T03:48:16;10.15;;;3.10;;
72939;SDS011;61094;51.154;13.570;2023-04-24T03:53:18;4.60;;;1.55;;
72939;SDS011;61094;51.154;13.570;2023-04-24T03:58:22;3.00;;;0.90;;
72939;SDS011;61094;51.154;13.570;2023-04-24T04:03:24;1.73;;;0.70;;
72939;SDS011;61094;51.154;13.570;2023-04-24T04:08:28;2.75;;;0.98;;
72939;SDS011;61094;51.154;13.570;2023-04-24T04:13:33;2.92;;;0.85;;
72939;SDS011;61094;51.154;13.570;2023-04-24T04:18:35;2.92;;;0.88;;
72939;SDS011;61094;51.154;13.570;2023-04-24T04:23:39;2.47;;;0.60;;
72939;SDS011;61094;51.154;13.570;2023-04-24T04:28:49;3.78;;;1.00;;
72939;SDS011;61094;51.154;13.570;2023-04-24T04:33:51;2.22;;;0.70;;
72939;SDS011;61094;51.154;13.570;2023-04-24T04:38:53;1.88;;;0.68;;
72939;SDS011;61094;51.154;13.570;2023-04-24T04:44:16;2.53;;;1.10;;
72939;SDS011;61094;51.154;13.570;2023-04-24T04:49:18;2.85;;;1.08;;
72939;SDS011;61094;51.154;13.570;2023-04-24T04:54:21;2.20;;;0.80;;
72939;SDS011;61094;51.154;13.570;2023-04-24T04:59:26;2.83;;;0.85;;
72939;SDS011;61094;51.154;13.570;2023-04-24T05:04:36;5.05;;;1.75;;
72939;SDS011;61094;51.154;13.570;2023-04-24T05:09:38;4.22;;;1.48;;
72939;SDS011;61094;51.154;13.570;2023-04-24T05:14:42;3.17;;;0.80;;
72939;SDS011;61094;51.154;13.570;2023-04-24T05:19:45;2.67;;;1.00;;
72939;SDS011;61094;51.154;13.570;2023-04-24T05:24:48;4.43;;;1.25;;
72939;SDS011;61094;51.154;13.570;2023-04-24T05:30:12;3.97;;;0.93;;
72939;SDS011;61094;51.154;13.570;2023-04-24T05:35:14;1.60;;;0.68;;
72939;SDS011;61094;51.154;13.570;2023-04-24T05:40:16;3.70;;;1.00;;
72939;SDS011;61094;51.154;13.570;2023-04-24T05:45:19;2.83;;;0.90;;
72939;SDS011;61094;51.154;13.570;2023-04-24T05:50:21;4.45;;;0.93;;
72939;SDS011;61094;51.154;13.570;2023-04-24T05:55:23;2.53;;;0.90;;
72939;SDS011;61094;51.154;13.570;2023-04-24T06:00:27;2.38;;;0.80;;
72939;SDS011;61094;51.154;13.570;2023-04-24T06:05:36;4.68;;;1.30;;
72939;SDS011;61094;51.154;13.570;2023-04-24T06:10:39;3.53;;;0.90;;
72939;SDS011;61094;51.154;13.570;2023-04-24T06:15:44;2.25;;;0.80;;
72939;SDS011;61094;51.154;13.570;2023-04-24T06:21:06;2.50;;;0.80;;
72939;SDS011;61094;51.154;13.570;2023-04-24T06:26:08;2.30;;;0.68;;
72939;SDS011;61094;51.154;13.570;2023-04-24T06:31:11;6.93;;;1.13;;
72939;SDS011;61094;51.154;13.570;2023-04-24T06:36:13;4.82;;;1.30;;
72939;SDS011;61094;51.154;13.570;2023-04-24T06:41:15;2.70;;;0.93;;
72939;SDS011;61094;51.154;13.570;2023-04-24T06:46:18;3.58;;;0.73;;
72939;SDS011;61094;51.154;13.570;2023-04-24T06:51:22;5.88;;;1.23;;
72939;SDS011;61094;51.154;13.570;2023-04-24T06:56:25;2.30;;;0.90;;
72939;SDS011;61094;51.154;13.570;2023-04-24T07:01:28;4.93;;;1.25;;
72939;SDS011;61094;51.154;13.570;2023-04-24T07:06:30;3.53;;;0.98;;
72939;SDS011;61094;51.154;13.570;2023-04-24T07:11:32;1.73;;;0.77;;
72939;SDS011;61094;51.154;13.570;2023-04-24T07:16:38;2.85;;;0.80;;
72939;SDS011;61094;51.154;13.570;2023-04-24T07:21:40;5.00;;;1.70;;
72939;SDS011;61094;51.154;13.570;2023-04-24T07:26:48;1.83;;;0.65;;
72939;SDS011;61094;51.154;13.570;2023-04-24T07:31:59;1.42;;;0.50;;
72939;SDS011;61094;51.154;13.570;2023-04-24T07:37:00;3.53;;;0.85;;
72939;SDS011;61094;51.154;13.570;2023-04-24T07:42:03;3.42;;;0.80;;
72939;SDS011;61094;51.154;13.570;2023-04-24T07:47:06;1.58;;;0.57;;
72939;SDS011;61094;51.154;13.570;2023-04-24T07:52:07;4.13;;;0.80;;
72939;SDS011;61094;51.154;13.570;2023-04-24T07:57:09;1.48;;;0.40;;
72939;SDS011;61094;51.154;13.570;2023-04-24T08:02:12;2.63;;;0.80;;
72939;SDS011;61094;51.154;13.570;2023-04-24T08:07:14;2.50;;;0.80;;
72939;SDS011;61094;51.154;13.570;2023-04-24T08:12:17;1.80;;;0.43;;
72939;SDS011;61094;51.154;13.570;2023-04-24T08:17:20;2.85;;;0.80;;
72939;SDS011;61094;51.154;13.570;2023-04-24T08:22:22;2.03;;;0.50;;
72939;SDS011;61094;51.154;13.570;2023-04-24T08:27:23;12.57;;;3.88;;
72939;SDS011;61094;51.154;13.570;2023-04-24T08:32:27;3.33;;;0.80;;
72939;SDS011;61094;51.154;13.570;2023-04-24T08:37:29;3.30;;;0.90;;
72939;SDS011;61094;51.154;13.570;2023-04-24T08:42:30;5.10;;;1.23;;
72939;SDS011;61094;51.154;13.570;2023-04-24T08:47:37;1.38;;;0.47;;
72939;SDS011;61094;51.154;13.570;2023-04-24T08:52:39;1.63;;;0.50;;
72939;SDS011;61094;51.154;13.570;2023-04-24T08:57:42;2.13;;;0.73;;
72939;SDS011;61094;51.154;13.570;2023-04-24T09:07:49;4.07;;;0.90;;
72939;SDS011;61094;51.154;13.570;2023-04-24T09:12:55;3.05;;;0.80;;
72939;SDS011;61094;51.154;13.570;2023-04-24T09:17:59;2.55;;;0.60;;
72939;SDS011;61094;51.154;13.570;2023-04-24T09:23:01;2.55;;;0.60;;
72939;SDS011;61094;51.154;13.570;2023-04-24T09:28:04;2.40;;;0.52;;
72939;SDS011;61094;51.154;13.570;2023-04-24T09:33:12;4.85;;;1.20;;
72939;SDS011;61094;51.154;13.570;2023-04-24T09:38:15;2.00;;;0.60;;
72939;SDS011;61094;51.154;13.570;2023-04-24T09:43:16;3.80;;;0.52;;
72939;SDS011;61094;51.154;13.570;2023-04-24T09:48:19;1.48;;;0.50;;
72939;SDS011;61094;51.154;13.570;2023-04-24T09:53:30;2.10;;;0.52;;
72939;SDS011;61094;51.154;13.570;2023-04-24T09:58:34;3.40;;;0.60;;
72939;SDS011;61094;51.154;13.570;2023-04-24T10:08:43;1.98;;;0.57;;
72939;SDS011;61094;51.154;13.570;2023-04-24T10:13:46;1.35;;;0.50;;
72939;SDS011;61094;51.154;13.570;2023-04-24T10:18:49;1.73;;;0.50;;
72939;SDS011;61094;51.154;13.570;2023-04-24T10:23:51;1.50;;;0.32;;
72939;SDS011;61094;51.154;13.570;2023-04-24T10:28:53;4.22;;;0.60;;
72939;SDS011;61094;51.154;13.570;2023-04-24T10:33:59;2.25;;;0.60;;
72939;SDS011;61094;51.154;13.570;2023-04-24T10:39:04;2.70;;;0.50;;
72939;SDS011;61094;51.154;13.570;2023-04-24T10:44:11;2.95;;;0.57;;
72939;SDS011;61094;51.154;13.570;2023-04-24T10:49:15;1.45;;;0.75;;
72939;SDS011;61094;51.154;13.570;2023-04-24T10:54:23;2.25;;;0.30;;
72939;SDS011;61094;51.154;13.570;2023-04-24T10:59:26;2.70;;;0.55;;
72939;SDS011;61094;51.154;13.570;2023-04-24T11:04:30;2.40;;;0.55;;
72939;SDS011;61094;51.154;13.570;2023-04-24T11:09:35;2.70;;;0.70;;
72939;SDS011;61094;51.154;13.570;2023-04-24T11:20:05;2.72;;;0.43;;
72939;SDS011;61094;51.154;13.570;2023-04-24T11:25:10;2.72;;;0.63;;
72939;SDS011;61094;51.154;13.570;2023-04-24T11:30:13;0.98;;;0.50;;
72939;SDS011;61094;51.154;13.570;2023-04-24T11:35:21;1.17;;;0.50;;
72939;SDS011;61094;51.154;13.570;2023-04-24T11:40:27;1.25;;;0.50;;
72939;SDS011;61094;51.154;13.570;2023-04-24T11:45:30;3.17;;;0.65;;
72939;SDS011;61094;51.154;13.570;2023-04-24T11:50:34;2.13;;;0.50;;
72939;SDS011;61094;51.154;13.570;2023-04-24T11:55:36;2.47;;;0.50;;
72939;SDS011;61094;51.154;13.570;2023-04-24T12:05:42;2.58;;;0.63;;
72939;SDS011;61094;51.154;13.570;2023-04-24T12:10:45;1.10;;;0.40;;
72939;SDS011;61094;51.154;13.570;2023-04-24T12:15:52;2.83;;;1.52;;
72939;SDS011;61094;51.154;13.570;2023-04-24T12:31:21;2.70;;;0.70;;
72939;SDS011;61094;51.154;13.570;2023-04-24T12:36:25;1.63;;;0.65;;
72939;SDS011;61094;51.154;13.570;2023-04-24T12:41:30;1.83;;;0.70;;
72939;SDS011;61094;51.154;13.570;2023-04-24T12:46:32;1.05;;;0.47;;
72939;SDS011;61094;51.154;13.570;2023-04-24T12:51:35;1.35;;;0.52;;
72939;SDS011;61094;51.154;13.570;2023-04-24T12:56:38;2.15;;;0.63;;
72939;SDS011;61094;51.154;13.570;2023-04-24T13:01:40;1.77;;;0.60;;
72939;SDS011;61094;51.154;13.570;2023-04-24T13:06:43;5.85;;;0.80;;
72939;SDS011;61094;51.154;13.570;2023-04-24T13:11:45;1.73;;;0.60;;
72939;SDS011;61094;51.154;13.570;2023-04-24T13:16:47;1.88;;;0.70;;
72939;SDS011;61094;51.154;13.570;2023-04-24T13:21:53;1.65;;;0.70;;
72939;SDS011;61094;51.154;13.570;2023-04-24T13:26:56;2.78;;;0.63;;
72939;SDS011;61094;51.154;13.570;2023-04-24T13:31:58;1.67;;;0.68;;
72939;SDS011;61094;51.154;13.570;2023-04-24T13:37:02;4.03;;;1.05;;
72939;SDS011;61094;51.154;13.570;2023-04-24T13:42:05;1.95;;;0.77;;
72939;SDS011;61094;51.154;13.570;2023-04-24T13:47:07;1.50;;;0.52;;
72939;SDS011;61094;51.154;13.570;2023-04-24T13:52:10;1.27;;;0.55;;
72939;SDS011;61094;51.154;13.570;2023-04-24T13:57:13;2.80;;;0.70;;
72939;SDS011;61094;51.154;13.570;2023-04-24T14:02:15;3.28;;;0.77;;
72939;SDS011;61094;51.154;13.570;2023-04-24T14:07:18;5.07;;;1.23;;
72939;SDS011;61094;51.154;13.570;2023-04-24T14:12:20;3.15;;;1.70;;
72939;SDS011;61094;51.154;13.570;2023-04-24T14:17:22;2.13;;;0.75;;
72939;SDS011;61094;51.154;13.570;2023-04-24T14:22:25;2.00;;;0.85;;
72939;SDS011;61094;51.154;13.570;2023-04-24T14:27:26;3.47;;;0.70;;
72939;SDS011;61094;51.154;13.570;2023-04-24T14:32:28;5.80;;;1.80;;
72939;SDS011;61094;51.154;13.570;2023-04-24T14:37:32;3.38;;;0.50;;
72939;SDS011;61094;51.154;13.570;2023-04-24T14:42:33;3.33;;;1.00;;
72939;SDS011;61094;51.154;13.570;2023-04-24T14:47:36;2.05;;;0.80;;
72939;SDS011;61094;51.154;13.570;2023-04-24T14:57:41;3.05;;;1.20;;
72939;SDS011;61094;51.154;13.570;2023-04-24T15:08:19;3.55;;;1.05;;
72939;SDS011;61094;51.154;13.570;2023-04-24T15:13:20;2.30;;;0.70;;
72939;SDS011;61094;51.154;13.570;2023-04-24T15:18:22;2.10;;;0.75;;
72939;SDS011;61094;51.154;13.570;2023-04-24T15:23:25;3.13;;;0.90;;
72939;SDS011;61094;51.154;13.570;2023-04-24T15:28:27;2.10;;;0.70;;
72939;SDS011;61094;51.154;13.570;2023-04-24T15:33:29;2.70;;;0.65;;
72939;SDS011;61094;51.154;13.570;2023-04-24T15:38:32;1.33;;;0.55;;
72939;SDS011;61094;51.154;13.570;2023-04-24T15:43:36;2.65;;;1.00;;
72939;SDS011;61094;51.154;13.570;2023-04-24T15:53:43;2.70;;;0.77;;
72939;SDS011;61094;51.154;13.570;2023-04-24T15:58:45;4.82;;;1.17;;
72939;SDS011;61094;51.154;13.570;2023-04-24T16:03:47;2.72;;;0.65;;
72939;SDS011;61094;51.154;13.570;2023-04-24T16:08:50;2.92;;;0.65;;
72939;SDS011;61094;51.154;13.570;2023-04-24T16:13:52;2.33;;;0.80;;
72939;SDS011;61094;51.154;13.570;2023-04-24T16:18:54;1.17;;;0.45;;
72939;SDS011;61094;51.154;13.570;2023-04-24T16:23:57;2.00;;;0.57;;
72939;SDS011;61094;51.154;13.570;2023-04-24T16:28:59;1.20;;;0.60;;
72939;SDS011;61094;51.154;13.570;2023-04-24T16:34:00;2.00;;;0.80;;
72939;SDS011;61094;51.154;13.570;2023-04-24T16:39:04;2.67;;;0.80;;
72939;SDS011;61094;51.154;13.570;2023-04-24T16:49:59;2.13;;;0.70;;
72939;SDS011;61094;51.154;13.570;2023-04-24T16:55:03;2.33;;;0.88;;
72939;SDS011;61094;51.154;13.570;2023-04-24T17:00:06;8.80;;;2.50;;
72939;SDS011;61094;51.154;13.570;2023-04-24T17:05:09;4.43;;;1.27;;
72939;SDS011;61094;51.154;13.570;2023-04-24T17:10:12;6.88;;;2.65;;
72939;SDS011;61094;51.154;13.570;2023-04-24T17:15:14;4.38;;;2.13;;
72939;SDS011;61094;51.154;13.570;2023-04-24T17:20:16;3.85;;;0.75;;
72939;SDS011;61094;51.154;13.570;2023-04-24T17:25:19;1.10;;;0.32;;
72939;SDS011;61094;51.154;13.570;2023-04-24T17:30:21;1.08;;;0.35;;
72939;SDS011;61094;51.154;13.570;2023-04-24T17:35:23;2.45;;;0.32;;
72939;SDS011;61094;51.154;13.570;2023-04-24T17:40:26;3.47;;;0.50;;
72939;SDS011;61094;51.154;13.570;2023-04-24T17:45:28;2.30;;;0.40;;
72939;SDS011;61094;51.154;13.570;2023-04-24T17:50:29;0.30;;;0.20;;
72939;SDS011;61094;51.154;13.570;2023-04-24T17:55:32;1.20;;;0.30;;
72939;SDS011;61094;51.154;13.570;2023-04-24T18:06:55;1.70;;;0.50;;
72939;SDS011;61094;51.154;13.570;2023-04-24T18:12:04;1.80;;;0.38;;
72939;SDS011;61094;51.154;13.570;2023-04-24T18:17:22;2.58;;;1.23;;
72939;SDS011;61094;51.154;13.570;2023-04-24T18:22:25;1.55;;;0.32;;
72939;SDS011;61094;51.154;13.570;2023-04-24T18:28:09;0.47;;;0.30;;
72939;SDS011;61094;51.154;13.570;2023-04-24T18:33:12;1.10;;;0.50;;
72939;SDS011;61094;51.154;13.570;2023-04-24T18:38:47;2.30;;;0.95;;
72939;SDS011;61094;51.154;13.570;2023-04-24T18:44:20;1.50;;;0.40;;
72939;SDS011;61094;51.154;13.570;2023-04-24T18:49:30;1.65;;;0.60;;
72939;SDS011;61094;51.154;13.570;2023-04-24T18:54:38;2.40;;;0.70;;
72939;SDS011;61094;51.154;13.570;2023-04-24T18:59:42;1.35;;;0.57;;
72939;SDS011;61094;51.154;13.570;2023-04-24T19:04:47;2.45;;;0.80;;
72939;SDS011;61094;51.154;13.570;2023-04-24T19:09:49;5.63;;;1.60;;
72939;SDS011;61094;51.154;13.570;2023-04-24T19:14:52;2.28;;;0.98;;
72939;SDS011;61094;51.154;13.570;2023-04-24T19:19:55;1.88;;;0.77;;
72939;SDS011;61094;51.154;13.570;2023-04-24T19:24:56;2.85;;;0.98;;
72939;SDS011;61094;51.154;13.570;2023-04-24T19:29:59;2.55;;;0.60;;
72939;SDS011;61094;51.154;13.570;2023-04-24T19:40:03;3.33;;;1.10;;
72939;SDS011;61094;51.154;13.570;2023-04-24T19:50:10;1.50;;;0.60;;
72939;SDS011;61094;51.154;13.570;2023-04-24T19:55:11;2.42;;;0.75;;
72939;SDS011;61094;51.154;13.570;2023-04-24T20:00:15;1.58;;;0.57;;
72939;SDS011;61094;51.154;13.570;2023-04-24T20:05:16;2.22;;;0.70;;
72939;SDS011;61094;51.154;13.570;2023-04-24T20:10:18;4.78;;;1.23;;
72939;SDS011;61094;51.154;13.570;2023-04-24T20:15:21;2.90;;;1.02;;
72939;SDS011;61094;51.154;13.570;2023-04-24T20:20:23;2.90;;;1.05;;
72939;SDS011;61094;51.154;13.570;2023-04-24T20:25:25;6.20;;;1.05;;
72939;SDS011;61094;51.154;13.570;2023-04-24T20:30:28;1.83;;;0.80;;
72939;SDS011;61094;51.154;13.570;2023-04-24T20:35:30;3.70;;;1.20;;
72939;SDS011;61094;51.154;13.570;2023-04-24T20:40:32;4.03;;;1.00;;
72939;SDS011;61094;51.154;13.570;2023-04-24T20:45:36;3.90;;;0.88;;
72939;SDS011;61094;51.154;13.570;2023-04-24T20:50:38;5.38;;;1.38;;
72939;SDS011;61094;51.154;13.570;2023-04-24T20:55:40;4.00;;;1.23;;
72939;SDS011;61094;51.154;13.570;2023-04-24T21:00:43;4.70;;;1.33;;
72939;SDS011;61094;51.154;13.570;2023-04-24T21:05:45;4.15;;;1.60;;
72939;SDS011;61094;51.154;13.570;2023-04-24T21:10:47;3.22;;;1.20;;
72939;SDS011;61094;51.154;13.570;2023-04-24T21:15:52;4.30;;;1.20;;
72939;SDS011;61094;51.154;13.570;2023-04-24T21:20:53;8.75;;;1.80;;
72939;SDS011;61094;51.154;13.570;2023-04-24T21:25:58;5.25;;;1.38;;
72939;SDS011;61094;51.154;13.570;2023-04-24T21:31:01;4.03;;;1.40;;
72939;SDS011;61094;51.154;13.570;2023-04-24T21:36:03;7.55;;;1.40;;
72939;SDS011;61094;51.154;13.570;2023-04-24T21:41:05;4.50;;;1.30;;
72939;SDS011;61094;51.154;13.570;2023-04-24T21:46:08;3.25;;;1.20;;
72939;SDS011;61094;51.154;13.570;2023-04-24T21:56:12;6.00;;;1.67;;
72939;SDS011;61094;51.154;13.570;2023-04-24T22:01:15;7.10;;;1.92;;
72939;SDS011;61094;51.154;13.570;2023-04-24T22:06:18;5.40;;;1.73;;
72939;SDS011;61094;51.154;13.570;2023-04-24T22:11:19;6.13;;;1.90;;
72939;SDS011;61094;51.154;13.570;2023-04-24T22:16:22;5.18;;;1.63;;
72939;SDS011;61094;51.154;13.570;2023-04-24T22:21:24;4.80;;;1.73;;
72939;SDS011;61094;51.154;13.570;2023-04-24T22:26:26;5.57;;;1.58;;
72939;SDS011;61094;51.154;13.570;2023-04-24T22:31:29;6.28;;;1.77;;
72939;SDS011;61094;51.154;13.570;2023-04-24T22:36:31;4.10;;;1.75;;
72939;SDS011;61094;51.154;13.570;2023-04-24T22:41:33;3.80;;;1.50;;
72939;SDS011;61094;51.154;13.570;2023-04-24T22:46:36;4.60;;;1.40;;
72939;SDS011;61094;51.154;13.570;2023-04-24T22:51:38;5.00;;;1.75;;
72939;SDS011;61094;51.154;13.570;2023-04-24T22:56:40;5.05;;;1.55;;
72939;SDS011;61094;51.154;13.570;2023-04-24T23:01:43;5.88;;;1.90;;
72939;SDS011;61094;51.154;13.570;2023-04-24T23:06:45;4.97;;;1.70;;
72939;SDS011;61094;51.154;13.570;2023-04-24T23:11:47;4.15;;;1.52;;
72939;SDS011;61094;51.154;13.570;2023-04-24T23:16:50;6.03;;;1.85;;
72939;SDS011;61094;51.154;13.570;2023-04-24T23:21:51;5.35;;;1.60;;
72939;SDS011;61094;51.154;13.570;2023-04-24T23:26:53;6.03;;;1.65;;
72939;SDS011;61094;51.154;13.570;2023-04-24T23:31:56;7.45;;;1.67;;
72939;SDS011;61094;51.154;13.570;2023-04-24T23:36:58;5.43;;;1.75;;
72939;SDS011;61094;51.154;13.570;2023-04-24T23:42:00;6.03;;;1.80;;
72939;SDS011;61094;51.154;13.570;2023-04-24T23:47:04;5.80;;;1.60;;
72939;SDS011;61094;51.154;13.570;2023-04-24T23:52:05;4.95;;;1.77;;
72939;SDS011;61094;51.154;13.570;2023-04-24T23:57:07;5.68;;;1.83;;
